sensor_id;sensor_type;location;lat;lon;timestamp;pressure;altitude;pressure_sealevel;temperature;humidity
13434;BME280;6789;47.678;9.158;2022-08-21T00:52:09;96931.09;;;16.72;100.00
13434;BME280;6789;47.678;9.158;2022-08-21T01:13:21;96937.53;;;16.91;100.00
13434;BME280;6789;47.678;9.158;2022-08-21T02:03:54;96921.38;;;17.68;100.00
13434;BME280;6789;47.678;9.158;2022-08-21T02:08:47;96915.53;;;17.66;100.00
13434;BME280;6789;47.678;9.158;2022-08-21T02:13:39;96912.09;;;17.66;100.00
13434;BME280;6789;47.678;9.158;2022-08-21T02:18:31;96905.47;;;17.63;100.00
13434;BME280;6789;47.678;9.158;2022-08-21T02:23:38;96909.16;;;17.67;100.00
13434;BME280;6789;47.678;9.158;2022-08-21T02:28:30;96916.34;;;17.67;100.00
13434;BME280;6789;47.678;9.158;2022-08-21T02:33:22;96899.38;;;17.73;100.00
13434;BME280;6789;47.678;9.158;2022-08-21T02:38:26;96902.81;;;17.68;100.00
13434;BME280;6789;47.678;9.158;2022-08-21T02:43:34;96905.47;;;17.63;100.00
13434;BME280;6789;47.678;9.158;2022-08-21T02:48:42;96907.56;;;17.66;100.00
13434;BME280;6789;47.678;9.158;2022-08-21T02:53:37;96907.03;;;17.49;100.00
13434;BME280;6789;47.678;9.158;2022-08-21T02:58:51;96909.69;;;17.54;100.00
13434;BME280;6789;47.678;9.158;2022-08-21T03:04:18;96908.84;;;17.49;100.00
13434;BME280;6789;47.678;9.158;2022-08-21T03:09:11;96909.13;;;17.47;100.00
13434;BME280;6789;47.678;9.158;2022-08-21T03:14:03;96911.28;;;17.45;100.00
13434;BME280;6789;47.678;9.158;2022-08-21T03:19:11;96911.00;;;17.42;100.00
13434;BME280;6789;47.678;9.158;2022-08-21T03:24:17;96908.84;;;17.34;100.00
13434;BME280;6789;47.678;9.158;2022-08-21T03:29:23;96909.63;;;17.39;100.00
13434;BME280;6789;47.678;9.158;2022-08-21T03:34:29;96912.06;;;17.46;100.00
13434;BME280;6789;47.678;9.158;2022-08-21T03:39:21;96908.84;;;17.49;100.00
13434;BME280;6789;47.678;9.158;2022-08-21T03:44:28;96903.88;;;17.57;100.00
13434;BME280;6789;47.678;9.158;2022-08-21T03:49:20;96908.34;;;17.57;100.00
13434;BME280;6789;47.678;9.158;2022-08-21T03:54:13;96896.97;;;17.66;100.00
13434;BME280;6789;47.678;9.158;2022-08-21T03:59:56;96901.75;;;17.74;100.00
13434;BME280;6789;47.678;9.158;2022-08-21T04:05:09;96903.59;;;17.74;100.00
13434;BME280;6789;47.678;9.158;2022-08-21T04:10:35;96898.81;;;17.71;100.00
13434;BME280;6789;47.678;9.158;2022-08-21T04:16:32;96904.91;;;17.61;100.00
13434;BME280;6789;47.678;9.158;2022-08-21T04:22:30;96902.25;;;17.61;100.00
13434;BME280;6789;47.678;9.158;2022-08-21T04:27:56;96908.66;;;17.70;100.00
13434;BME280;6789;47.678;9.158;2022-08-21T04:34:22;96910.72;;;17.53;100.00
13434;BME280;6789;47.678;9.158;2022-08-21T04:39:46;96913.38;;;17.43;100.00
13434;BME280;6789;47.678;9.158;2022-08-21T04:45:39;96921.31;;;17.38;100.00
13434;BME280;6789;47.678;9.158;2022-08-21T04:57:08;96927.69;;;17.42;100.00
13434;BME280;6789;47.678;9.158;2022-08-21T05:02:21;96924.25;;;17.47;100.00
13434;BME280;6789;47.678;9.158;2022-08-21T05:08:01;96932.22;;;17.52;100.00
13434;BME280;6789;47.678;9.158;2022-08-21T05:13:29;96921.59;;;17.52;100.00
13434;BME280;6789;47.678;9.158;2022-08-21T05:19:18;96924.81;;;17.64;100.00
13434;BME280;6789;47.678;9.158;2022-08-21T05:24:36;96919.78;;;17.72;100.00
13434;BME280;6789;47.678;9.158;2022-08-21T05:29:56;96926.44;;;17.85;100.00
13434;BME280;6789;47.678;9.158;2022-08-21T05:35:50;96926.69;;;17.93;100.00
13434;BME280;6789;47.678;9.158;2022-08-21T05:41:34;96928.53;;;17.92;100.00
13434;BME280;6789;47.678;9.158;2022-08-21T05:47:12;96924.81;;;17.98;100.00
13434;BME280;6789;47.678;9.158;2022-08-21T05:52:31;96925.63;;;18.04;100.00
13434;BME280;6789;47.678;9.158;2022-08-21T05:58:20;96918.72;;;18.03;100.00
13434;BME280;6789;47.678;9.158;2022-08-21T06:04:12;96919.81;;;18.12;100.00
13434;BME280;6789;47.678;9.158;2022-08-21T06:09:25;96919.50;;;18.18;100.00
13434;BME280;6789;47.678;9.158;2022-08-21T06:14:57;96909.19;;;18.27;100.00
13434;BME280;6789;47.678;9.158;2022-08-21T06:20:43;96905.34;;;18.87;100.00
13434;BME280;6789;47.678;9.158;2022-08-21T06:26:48;96899.09;;;20.03;96.73
13434;BME280;6789;47.678;9.158;2022-08-21T06:38:09;96900.25;;;20.77;89.70
13434;BME280;6789;47.678;9.158;2022-08-21T06:44:15;96903.50;;;20.69;90.01
13434;BME280;6789;47.678;9.158;2022-08-21T06:50:13;96892.38;;;20.62;90.73
13434;BME280;6789;47.678;9.158;2022-08-21T06:56:04;96906.59;;;20.29;93.34
13434;BME280;6789;47.678;9.158;2022-08-21T07:01:36;96899.38;;;20.02;94.86
13434;BME280;6789;47.678;9.158;2022-08-21T07:06:41;96888.78;;;20.53;91.84
13434;BME280;6789;47.678;9.158;2022-08-21T07:12:14;96897.47;;;20.35;91.35
13434;BME280;6789;47.678;9.158;2022-08-21T07:18:25;96897.97;;;21.12;86.67
13434;BME280;6789;47.678;9.158;2022-08-21T07:23:50;96898.44;;;21.38;84.77
13434;BME280;6789;47.678;9.158;2022-08-21T07:29:28;96901.72;;;21.71;82.59
13434;BME280;6789;47.678;9.158;2022-08-21T07:34:37;96903.38;;;21.86;82.23
13434;BME280;6789;47.678;9.158;2022-08-21T07:40:35;96901.34;;;21.18;84.43
13434;BME280;6789;47.678;9.158;2022-08-21T07:46:45;96898.59;;;21.83;82.56
13434;BME280;6789;47.678;9.158;2022-08-21T07:51:56;96900.22;;;22.47;77.76
13434;BME280;6789;47.678;9.158;2022-08-21T07:57:04;96894.81;;;22.79;76.88
13434;BME280;6789;47.678;9.158;2022-08-21T08:03:02;96893.25;;;23.05;74.55
13434;BME280;6789;47.678;9.158;2022-08-21T08:08:59;96897.75;;;22.51;76.48
13434;BME280;6789;47.678;9.158;2022-08-21T08:14:40;96885.91;;;22.84;77.10
13434;BME280;6789;47.678;9.158;2022-08-21T08:21:03;96888.56;;;23.10;74.42
13434;BME280;6789;47.678;9.158;2022-08-21T08:26:42;96878.38;;;22.99;75.24
13434;BME280;6789;47.678;9.158;2022-08-21T08:31:49;96870.78;;;23.41;75.31
13434;BME280;6789;47.678;9.158;2022-08-21T08:36:55;96867.44;;;23.36;74.67
13434;BME280;6789;47.678;9.158;2022-08-21T08:42:35;96873.88;;;23.35;74.15
13434;BME280;6789;47.678;9.158;2022-08-21T08:48:08;96866.50;;;23.54;75.12
13434;BME280;6789;47.678;9.158;2022-08-21T09:03:48;96852.09;;;23.85;71.90
13434;BME280;6789;47.678;9.158;2022-08-21T09:09:51;96851.66;;;23.70;71.93
13434;BME280;6789;47.678;9.158;2022-08-21T09:32:40;96839.44;;;24.51;70.59
13434;BME280;6789;47.678;9.158;2022-08-21T09:38:35;96838.72;;;24.67;69.52
13434;BME280;6789;47.678;9.158;2022-08-21T09:44:28;96842.69;;;24.78;68.76
13434;BME280;6789;47.678;9.158;2022-08-21T09:50:30;96830.16;;;25.04;66.75
13434;BME280;6789;47.678;9.158;2022-08-21T10:01:50;96816.94;;;25.16;66.04
13434;BME280;6789;47.678;9.158;2022-08-21T10:07:32;96821.75;;;24.97;66.42
13434;BME280;6789;47.678;9.158;2022-08-21T10:12:58;96807.94;;;25.29;65.20
13434;BME280;6789;47.678;9.158;2022-08-21T10:31:00;96803.03;;;25.65;49.92
13434;BME280;6789;47.678;9.158;2022-08-21T10:48:39;96803.53;;;25.33;47.75
13434;BME280;6789;47.678;9.158;2022-08-21T10:54:54;96799.75;;;25.76;46.75
13434;BME280;6789;47.678;9.158;2022-08-21T11:00:21;96799.56;;;25.81;47.74
13434;BME280;6789;47.678;9.158;2022-08-21T11:06:20;96788.03;;;25.13;48.21
13434;BME280;6789;47.678;9.158;2022-08-21T11:11:58;96775.56;;;25.17;48.26
13434;BME280;6789;47.678;9.158;2022-08-21T11:23:11;96768.81;;;24.81;48.53
13434;BME280;6789;47.678;9.158;2022-08-21T11:28:54;96761.34;;;25.33;45.94
13434;BME280;6789;47.678;9.158;2022-08-21T11:41:02;96756.88;;;25.71;44.99
13434;BME280;6789;47.678;9.158;2022-08-21T11:47:17;96745.66;;;25.78;45.81
13434;BME280;6789;47.678;9.158;2022-08-21T11:53:38;96735.13;;;26.18;43.76
13434;BME280;6789;47.678;9.158;2022-08-21T11:59:26;96720.88;;;25.47;45.25
13434;BME280;6789;47.678;9.158;2022-08-21T12:05:58;96719.31;;;26.08;44.07
13434;BME280;6789;47.678;9.158;2022-08-21T12:18:46;96706.28;;;26.27;44.10
13434;BME280;6789;47.678;9.158;2022-08-21T12:35:47;96704.84;;;26.30;43.37
13434;BME280;6789;47.678;9.158;2022-08-21T12:54:44;96684.03;;;26.18;44.53
13434;BME280;6789;47.678;9.158;2022-08-21T13:00:44;96682.81;;;26.07;44.89
13434;BME280;6789;47.678;9.158;2022-08-21T13:06:56;96681.84;;;26.03;46.88
13434;BME280;6789;47.678;9.158;2022-08-21T13:12:32;96670.34;;;26.32;46.29
13434;BME280;6789;47.678;9.158;2022-08-21T13:17:50;96674.09;;;26.39;45.96
13434;BME280;6789;47.678;9.158;2022-08-21T13:23:30;96678.63;;;26.18;45.18
13434;BME280;6789;47.678;9.158;2022-08-21T13:29:06;96672.53;;;26.67;46.25
13434;BME280;6789;47.678;9.158;2022-08-21T13:36:03;96675.00;;;26.72;44.52
13434;BME280;6789;47.678;9.158;2022-08-21T13:47:20;96670.31;;;26.40;46.10
13434;BME280;6789;47.678;9.158;2022-08-21T14:03:44;96659.41;;;26.66;46.49
13434;BME280;6789;47.678;9.158;2022-08-21T14:09:49;96661.34;;;26.77;45.69
13434;BME280;6789;47.678;9.158;2022-08-21T14:15:23;96660.84;;;26.63;44.51
13434;BME280;6789;47.678;9.158;2022-08-21T14:20:39;96655.00;;;26.61;43.08
13434;BME280;6789;47.678;9.158;2022-08-21T14:26:06;96652.09;;;26.46;44.56
13434;BME280;6789;47.678;9.158;2022-08-21T14:32:36;96653.28;;;26.57;44.71
13434;BME280;6789;47.678;9.158;2022-08-21T14:38:23;96647.19;;;26.68;44.45
13434;BME280;6789;47.678;9.158;2022-08-21T14:44:19;96641.66;;;26.85;42.18
13434;BME280;6789;47.678;9.158;2022-08-21T14:49:58;96635.25;;;26.77;42.79
13434;BME280;6789;47.678;9.158;2022-08-21T14:56:02;96638.25;;;26.76;43.53
13434;BME280;6789;47.678;9.158;2022-08-21T15:01:47;96632.47;;;26.86;41.70
13434;BME280;6789;47.678;9.158;2022-08-21T15:07:07;96627.47;;;26.76;41.23
13434;BME280;6789;47.678;9.158;2022-08-21T15:12:16;96622.63;;;26.49;42.12
13434;BME280;6789;47.678;9.158;2022-08-21T15:17:59;96624.56;;;26.40;41.38
13434;BME280;6789;47.678;9.158;2022-08-21T15:23:34;96618.25;;;26.36;42.10
13434;BME280;6789;47.678;9.158;2022-08-21T15:29:11;96616.63;;;26.44;41.38
13434;BME280;6789;47.678;9.158;2022-08-21T15:34:20;96615.09;;;26.34;41.54
13434;BME280;6789;47.678;9.158;2022-08-21T15:39:28;96596.56;;;26.41;40.22
13434;BME280;6789;47.678;9.158;2022-08-21T15:45:24;96606.16;;;26.22;40.40
13434;BME280;6789;47.678;9.158;2022-08-21T15:51:21;96612.84;;;25.79;42.51
13434;BME280;6789;47.678;9.158;2022-08-21T15:56:44;96601.19;;;25.75;42.57
13434;BME280;6789;47.678;9.158;2022-08-21T16:02:43;96606.00;;;25.44;42.63
13434;BME280;6789;47.678;9.158;2022-08-21T16:08:06;96601.63;;;25.77;39.32
13434;BME280;6789;47.678;9.158;2022-08-21T16:14:15;96590.75;;;25.65;39.45
13434;BME280;6789;47.678;9.158;2022-08-21T16:20:27;96592.16;;;25.71;40.32
13434;BME280;6789;47.678;9.158;2022-08-21T16:25:58;96589.97;;;25.64;41.50
13434;BME280;6789;47.678;9.158;2022-08-21T16:31:16;96577.34;;;25.56;42.55
13434;BME280;6789;47.678;9.158;2022-08-21T16:37:03;96568.75;;;25.34;42.63
13434;BME280;6789;47.678;9.158;2022-08-21T16:42:47;96575.63;;;25.52;42.79
13434;BME280;6789;47.678;9.158;2022-08-21T16:49:07;96571.13;;;25.35;43.59
13434;BME280;6789;47.678;9.158;2022-08-21T16:54:31;96568.13;;;25.37;43.09
13434;BME280;6789;47.678;9.158;2022-08-21T17:00:38;96566.22;;;25.29;43.34
13434;BME280;6789;47.678;9.158;2022-08-21T17:06:37;96562.63;;;25.25;44.00
13434;BME280;6789;47.678;9.158;2022-08-21T17:11:57;96564.03;;;25.31;44.16
13434;BME280;6789;47.678;9.158;2022-08-21T17:17:15;96564.34;;;25.21;44.82
13434;BME280;6789;47.678;9.158;2022-08-21T17:22:33;96563.59;;;25.04;45.39
13434;BME280;6789;47.678;9.158;2022-08-21T17:27:41;96557.31;;;24.83;45.54
13434;BME280;6789;47.678;9.158;2022-08-21T17:32:55;96560.97;;;24.61;47.02
13434;BME280;6789;47.678;9.158;2022-08-21T17:38:04;96564.44;;;24.45;46.92
13434;BME280;6789;47.678;9.158;2022-08-21T17:43:36;96558.72;;;24.30;47.97
13434;BME280;6789;47.678;9.158;2022-08-21T17:49:22;96563.13;;;24.17;48.35
13434;BME280;6789;47.678;9.158;2022-08-21T17:54:41;96556.34;;;24.03;49.68
13434;BME280;6789;47.678;9.158;2022-08-21T18:00:11;96556.91;;;23.83;49.93
13434;BME280;6789;47.678;9.158;2022-08-21T18:05:36;96560.63;;;23.65;50.09
13434;BME280;6789;47.678;9.158;2022-08-21T18:16:11;96561.97;;;23.15;55.88
13434;BME280;6789;47.678;9.158;2022-08-21T18:22:08;96567.25;;;22.85;57.52
13434;BME280;6789;47.678;9.158;2022-08-21T18:28:05;96566.66;;;22.66;59.81
13434;BME280;6789;47.678;9.158;2022-08-21T18:38:22;96577.06;;;22.19;64.04
13434;BME280;6789;47.678;9.158;2022-08-21T18:43:30;96579.31;;;21.90;66.07
13434;BME280;6789;47.678;9.158;2022-08-21T18:48:37;96579.72;;;21.70;67.50
13434;BME280;6789;47.678;9.158;2022-08-21T18:53:50;96583.25;;;21.52;68.92
13434;BME280;6789;47.678;9.158;2022-08-21T18:58:56;96589.56;;;21.30;69.76
13434;BME280;6789;47.678;9.158;2022-08-21T19:24:04;96607.66;;;20.51;77.04
13434;BME280;6789;47.678;9.158;2022-08-21T19:30:13;96607.78;;;20.41;79.90
13434;BME280;6789;47.678;9.158;2022-08-21T19:36:51;96615.84;;;20.36;78.27
13434;BME280;6789;47.678;9.158;2022-08-21T19:42:51;96617.38;;;20.23;78.83
13434;BME280;6789;47.678;9.158;2022-08-21T19:53:38;96619.28;;;20.00;81.21
13434;BME280;6789;47.678;9.158;2022-08-21T20:06:00;96619.50;;;19.56;85.51
13434;BME280;6789;47.678;9.158;2022-08-21T20:11:41;96627.75;;;19.55;85.93
13434;BME280;6789;47.678;9.158;2022-08-21T20:22:59;96623.00;;;19.24;88.52
13434;BME280;6789;47.678;9.158;2022-08-21T20:29:07;96620.75;;;19.12;89.42
13434;BME280;6789;47.678;9.158;2022-08-21T20:39:53;96619.72;;;19.03;89.71
13434;BME280;6789;47.678;9.158;2022-08-21T20:51:34;96625.34;;;18.63;91.48
13434;BME280;6789;47.678;9.158;2022-08-21T20:56:49;96622.00;;;18.53;92.12
13434;BME280;6789;47.678;9.158;2022-08-21T21:02:18;96616.47;;;18.45;93.00
13434;BME280;6789;47.678;9.158;2022-08-21T21:19:02;96624.56;;;18.25;93.90
13434;BME280;6789;47.678;9.158;2022-08-21T21:31:05;96623.53;;;18.11;94.36
13434;BME280;6789;47.678;9.158;2022-08-21T21:37:00;96625.44;;;18.00;94.93
13434;BME280;6789;47.678;9.158;2022-08-21T21:42:45;96627.84;;;17.97;95.76
13434;BME280;6789;47.678;9.158;2022-08-21T21:53:55;96635.31;;;17.90;96.42
13434;BME280;6789;47.678;9.158;2022-08-21T22:11:06;96630.59;;;17.72;96.70
13434;BME280;6789;47.678;9.158;2022-08-21T22:16:25;96632.97;;;17.74;95.75
13434;BME280;6789;47.678;9.158;2022-08-21T22:22:22;96644.94;;;17.71;96.07
13434;BME280;6789;47.678;9.158;2022-08-21T22:27:39;96638.06;;;17.65;95.57
13434;BME280;6789;47.678;9.158;2022-08-21T22:32:49;96656.69;;;17.45;96.35
13434;BME280;6789;47.678;9.158;2022-08-21T22:38:36;96647.16;;;17.29;96.90
13434;BME280;6789;47.678;9.158;2022-08-21T22:44:18;96648.75;;;17.25;96.53
13434;BME280;6789;47.678;9.158;2022-08-21T23:01:43;96660.66;;;17.13;98.28
13434;BME280;6789;47.678;9.158;2022-08-21T23:06:59;96650.88;;;17.04;98.65
13434;BME280;6789;47.678;9.158;2022-08-21T23:24:17;96643.47;;;17.06;99.49
13434;BME280;6789;47.678;9.158;2022-08-21T23:30:09;96637.13;;;17.02;99.81
13434;BME280;6789;47.678;9.158;2022-08-21T23:35:56;96635.78;;;16.89;100.00
13434;BME280;6789;47.678;9.158;2022-08-21T23:41:52;96635.00;;;16.89;100.00
13434;BME280;6789;47.678;9.158;2022-08-21T23:47:14;96635.00;;;16.89;100.00
